Time,TemperatureF,DewpointF,PressureIn,WindDirection,WindDirectionDegrees,WindSpeedMPH,WindSpeedGustMPH,Humidity,HourlyPrecipIn,Conditions,Clouds,dailyrainin,SoftwareType,DateUTC
2013-09-24 00:00:00,40.8,40.0,30.11,SE,145,0.0,0.0,97,0.00,,,0.00,VWS V14.01,2013-09-24 04:00:00,
2013-09-24 00:01:00,40.8,40.0,30.11,SE,145,0.0,0.0,97,0.00,,,0.00,VWS V14.01,2013-09-24 04:01:00,
2013-09-24 00:06:00,40.8,40.0,30.11,SE,145,0.0,0.0,97,0.00,,,0.00,VWS V14.01,2013-09-24 04:06:00,
2013-09-24 00:11:00,40.7,39.7,30.11,SE,145,0.0,0.0,96,0.00,,,0.00,VWS V14.01,2013-09-24 04:11:00,
2013-09-24 00:16:00,40.5,39.5,30.11,SE,145,0.0,0.0,96,0.00,,,0.00,VWS V14.01,2013-09-24 04:16:00,
2013-09-24 00:21:00,40.4,39.3,30.11,SE,145,0.0,0.0,96,0.00,,,0.00,VWS V14.01,2013-09-24 04:21:00,
2013-09-24 00:27:00,40.2,39.2,30.11,SE,145,0.0,0.0,96,0.00,,,0.00,VWS V14.01,2013-09-24 04:27:00,
2013-09-24 00:32:00,40.1,39.0,30.11,SE,145,0.0,0.0,96,0.00,,,0.00,VWS V14.01,2013-09-24 04:32:00,
2013-09-24 00:37:00,39.9,38.8,30.11,SE,145,0.0,0.0,96,0.00,,,0.00,VWS V14.01,2013-09-24 04:37:00,
2013-09-24 00:42:00,39.8,38.8,30.11,SE,145,0.0,0.0,96,0.00,,,0.00,VWS V14.01,2013-09-24 04:42:00,
2013-09-24 00:47:00,39.8,38.8,30.11,SE,145,0.0,0.0,96,0.00,,,0.00,VWS V14.01,2013-09-24 04:47:00,
2013-09-24 00:52:00,39.7,38.7,30.12,SE,145,0.0,0.0,96,0.00,,,0.00,VWS V14.01,2013-09-24 04:52:00,
2013-09-24 00:57:00,39.7,38.7,30.12,SE,145,0.0,0.0,96,0.00,,,0.00,VWS V14.01,2013-09-24 04:57:00,
2013-09-24 01:02:00,39.6,38.6,30.12,SE,145,0.0,0.0,96,0.00,,,0.00,VWS V14.01,2013-09-24 05:02:00,
2013-09-24 01:07:00,39.6,38.8,30.12,SE,145,0.0,0.0,97,0.00,,,0.00,VWS V14.01,2013-09-24 05:07:00,
2013-09-24 01:12:00,39.6,38.8,30.12,SE,145,0.0,0.0,97,0.00,,,0.00,VWS V14.01,2013-09-24 05:12:00,
2013-09-24 01:17:00,39.7,38.9,30.12,SE,145,0.0,0.0,97,0.00,,,0.00,VWS V14.01,2013-09-24 05:17:00,
2013-09-24 01:22:00,39.6,38.8,30.11,SE,145,0.0,0.0,97,0.00,,,0.00,VWS V14.01,2013-09-24 05:22:00,
2013-09-24 01:27:00,39.6,38.8,30.11,SE,145,0.0,0.0,97,0.00,,,0.00,VWS V14.01,2013-09-24 05:27:00,
2013-09-24 01:32:00,39.5,38.7,30.12,SE,145,0.0,0.0,97,0.00,,,0.00,VWS V14.01,2013-09-24 05:32:00,
2013-09-24 01:37:00,39.5,38.7,30.11,SE,145,0.0,0.0,97,0.00,,,0.00,VWS V14.01,2013-09-24 05:37:00,
2013-09-24 01:43:00,39.3,38.5,30.11,SE,145,0.0,0.0,97,0.00,,,0.00,VWS V14.01,2013-09-24 05:43:00,
2013-09-24 01:48:00,39.2,38.4,30.12,SE,145,0.0,0.0,97,0.00,,,0.00,VWS V14.01,2013-09-24 05:48:00,
2013-09-24 01:53:00,39.2,38.4,30.12,SE,145,0.0,0.0,97,0.00,,,0.00,VWS V14.01,2013-09-24 05:53:00,
2013-09-24 01:58:00,39.0,38.2,30.12,SE,146,0.0,0.0,97,0.00,,,0.00,VWS V14.01,2013-09-24 05:58:00,
2013-09-24 02:03:00,38.9,38.1,30.12,SE,146,0.0,0.0,97,0.00,,,0.00,VWS V14.01,2013-09-24 06:03:00,
2013-09-24 02:08:00,38.8,38.0,30.12,SE,146,0.0,0.0,97,0.00,,,0.00,VWS V14.01,2013-09-24 06:08:00,
2013-09-24 02:13:00,38.7,37.7,30.12,SE,146,0.0,0.0,96,0.00,,,0.00,VWS V14.01,2013-09-24 06:13:00,
2013-09-24 02:18:00,38.7,37.9,30.12,SE,146,0.0,0.0,97,0.00,,,0.00,VWS V14.01,2013-09-24 06:18:00,
2013-09-24 02:23:00,38.7,37.9,30.12,SE,146,0.0,0.0,97,0.00,,,0.00,VWS V14.01,2013-09-24 06:23:00,
2013-09-24 02:28:00,38.6,37.8,30.12,SE,146,0.0,0.0,97,0.00,,,0.00,VWS V14.01,2013-09-24 06:28:00,
2013-09-24 02:33:00,38.6,37.8,30.12,SE,146,0.0,0.0,97,0.00,,,0.00,VWS V14.01,2013-09-24 06:33:00,
2013-09-24 02:38:00,38.5,37.7,30.12,SE,146,0.0,0.0,97,0.00,,,0.00,VWS V14.01,2013-09-24 06:38:00,
2013-09-24 02:43:00,38.6,37.8,30.12,SE,146,0.0,0.0,97,0.00,,,0.00,VWS V14.01,2013-09-24 06:43:00,
2013-09-24 02:48:00,38.8,38.0,30.12,SE,146,0.0,0.0,97,0.00,,,0.00,VWS V14.01,2013-09-24 06:48:00,
2013-09-24 02:53:00,38.8,38.0,30.12,SE,146,0.0,0.0,97,0.00,,,0.00,VWS V14.01,2013-09-24 06:53:00,
2013-09-24 02:59:00,38.9,38.4,30.12,SE,146,0.0,0.0,98,0.00,,,0.00,VWS V14.01,2013-09-24 06:59:00,
2013-09-24 03:04:00,39.1,38.6,30.12,SE,146,0.0,0.0,98,0.00,,,0.00,VWS V14.01,2013-09-24 07:04:00,
2013-09-24 03:09:00,39.1,38.6,30.12,SE,146,0.0,0.0,98,0.00,,,0.00,VWS V14.01,2013-09-24 07:09:00,
2013-09-24 03:14:00,39.1,38.3,30.11,SE,146,0.0,0.0,97,0.00,,,0.00,VWS V14.01,2013-09-24 07:14:00,
2013-09-24 03:19:00,39.0,38.2,30.11,SE,146,0.0,0.0,97,0.00,,,0.00,VWS V14.01,2013-09-24 07:19:00,
2013-09-24 03:24:00,39.2,38.7,30.11,SE,146,0.0,0.0,98,0.00,,,0.00,VWS V14.01,2013-09-24 07:24:00,
2013-09-24 03:29:00,39.5,39.0,30.11,SE,145,0.0,0.0,98,0.00,,,0.00,VWS V14.01,2013-09-24 07:29:00,
2013-09-24 03:34:00,39.6,39.1,30.11,SE,145,0.0,0.0,98,0.00,,,0.00,VWS V14.01,2013-09-24 07:34:00,
2013-09-24 03:39:00,39.6,39.1,30.11,SE,145,0.0,0.0,98,0.00,,,0.00,VWS V14.01,2013-09-24 07:39:00,
2013-09-24 03:44:00,39.5,39.0,30.11,SE,145,0.0,0.0,98,0.00,,,0.00,VWS V14.01,2013-09-24 07:44:00,
2013-09-24 03:49:00,39.3,38.8,30.11,SE,145,0.0,0.0,98,0.00,,,0.00,VWS V14.01,2013-09-24 07:49:00,
2013-09-24 03:54:00,39.2,38.4,30.11,SE,145,0.0,0.0,97,0.00,,,0.00,VWS V14.01,2013-09-24 07:54:00,
2013-09-24 03:59:00,38.9,38.1,30.11,SE,145,0.0,0.0,97,0.00,,,0.00,VWS V14.01,2013-09-24 07:59:00,
2013-09-24 04:04:00,38.7,37.9,30.11,SE,145,0.0,0.0,97,0.00,,,0.00,VWS V14.01,2013-09-24 08:04:00,
2013-09-24 04:10:00,38.6,37.8,30.11,SE,145,0.0,0.0,97,0.00,,,0.00,VWS V14.01,2013-09-24 08:10:00,
2013-09-24 04:15:00,38.4,37.6,30.11,SE,145,0.0,0.0,97,0.00,,,0.00,VWS V14.01,2013-09-24 08:15:00,
2013-09-24 04:20:00,38.2,37.4,30.12,SE,145,0.0,0.0,97,0.00,,,0.00,VWS V14.01,2013-09-24 08:20:00,
2013-09-24 04:25:00,38.1,37.3,30.12,SE,145,0.0,0.0,97,0.00,,,0.00,VWS V14.01,2013-09-24 08:25:00,
2013-09-24 04:30:00,38.1,37.3,30.12,SE,145,0.0,0.0,97,0.00,,,0.00,VWS V14.01,2013-09-24 08:30:00,
2013-09-24 04:35:00,38.0,37.2,30.12,SE,145,0.0,0.0,97,0.00,,,0.00,VWS V14.01,2013-09-24 08:35:00,
2013-09-24 04:40:00,37.8,37.0,30.12,SE,145,0.0,0.0,97,0.00,,,0.00,VWS V14.01,2013-09-24 08:40:00,
2013-09-24 04:45:00,37.7,36.9,30.12,SE,145,0.0,0.0,97,0.00,,,0.00,VWS V14.01,2013-09-24 08:45:00,
2013-09-24 04:50:00,37.6,36.8,30.12,SE,145,0.0,0.0,97,0.00,,,0.00,VWS V14.01,2013-09-24 08:50:00,
2013-09-24 04:55:00,37.5,36.7,30.12,SE,145,0.0,0.0,97,0.00,,,0.00,VWS V14.01,2013-09-24 08:55:00,
2013-09-24 05:00:00,37.4,36.6,30.12,SE,145,0.0,0.0,97,0.00,,,0.00,VWS V14.01,2013-09-24 09:00:00,
2013-09-24 05:05:00,37.3,36.5,30.12,SE,145,0.0,0.0,97,0.00,,,0.00,VWS V14.01,2013-09-24 09:05:00,
2013-09-24 05:10:00,37.2,36.4,30.12,SE,145,0.0,0.0,97,0.00,,,0.00,VWS V14.01,2013-09-24 09:10:00,
2013-09-24 05:15:00,37.2,36.4,30.12,SE,145,0.0,0.0,97,0.00,,,0.00,VWS V14.01,2013-09-24 09:15:00,
2013-09-24 05:20:00,37.4,36.6,30.12,SE,145,0.0,0.0,97,0.00,,,0.00,VWS V14.01,2013-09-24 09:20:00,
2013-09-24 05:25:00,37.6,37.1,30.12,SE,145,0.0,0.0,98,0.00,,,0.00,VWS V14.01,2013-09-24 09:25:00,
2013-09-24 05:30:00,37.6,37.1,30.13,SE,145,0.0,0.0,98,0.00,,,0.00,VWS V14.01,2013-09-24 09:30:00,
2013-09-24 05:35:00,37.5,37.0,30.12,SE,145,0.0,0.0,98,0.00,,,0.00,VWS V14.01,2013-09-24 09:35:00,
2013-09-24 05:40:00,37.4,36.6,30.13,SE,145,0.0,0.0,97,0.00,,,0.00,VWS V14.01,2013-09-24 09:40:00,
2013-09-24 05:45:00,37.4,36.6,30.13,SE,145,0.0,0.0,97,0.00,,,0.00,VWS V14.01,2013-09-24 09:45:00,
2013-09-24 05:50:00,37.4,36.9,30.13,SE,145,0.0,0.0,98,0.00,,,0.00,VWS V14.01,2013-09-24 09:50:00,
2013-09-24 05:55:00,37.5,37.0,30.13,SE,145,0.0,0.0,98,0.00,,,0.00,VWS V14.01,2013-09-24 09:55:00,
2013-09-24 06:00:00,37.4,36.9,30.13,SE,145,0.0,0.0,98,0.00,,,0.00,VWS V14.01,2013-09-24 10:00:00,
2013-09-24 06:05:00,37.3,36.8,30.13,SE,145,0.0,0.0,98,0.00,,,0.00,VWS V14.01,2013-09-24 10:05:00,
2013-09-24 06:10:00,37.3,36.8,30.13,SE,145,0.0,0.0,98,0.00,,,0.00,VWS V14.01,2013-09-24 10:10:00,
2013-09-24 06:15:00,37.2,36.4,30.13,SE,145,0.0,0.0,97,0.00,,,0.00,VWS V14.01,2013-09-24 10:15:00,
2013-09-24 06:20:00,37.1,36.6,30.13,SE,145,0.0,0.0,98,0.00,,,0.00,VWS V14.01,2013-09-24 10:20:00,
2013-09-24 06:25:00,37.1,36.6,30.13,SE,145,0.0,0.0,98,0.00,,,0.00,VWS V14.01,2013-09-24 10:25:00,
2013-09-24 06:31:00,37.0,36.5,30.13,SE,145,0.0,0.0,98,0.00,,,0.00,VWS V14.01,2013-09-24 10:31:00,
2013-09-24 06:36:00,37.1,36.6,30.13,SE,145,0.0,0.0,98,0.00,,,0.00,VWS V14.01,2013-09-24 10:36:00,
2013-09-24 06:41:00,37.1,36.6,30.13,SE,145,0.0,0.0,98,0.00,,,0.00,VWS V14.01,2013-09-24 10:41:00,
2013-09-24 06:46:00,37.1,36.6,30.13,SE,145,0.0,0.0,98,0.00,,,0.00,VWS V14.01,2013-09-24 10:46:00,
2013-09-24 06:51:00,37.1,36.6,30.13,SE,145,0.0,0.0,98,0.00,,,0.00,VWS V14.01,2013-09-24 10:51:00,
2013-09-24 06:56:00,37.1,36.6,30.13,SE,145,0.0,0.0,98,0.00,,,0.00,VWS V14.01,2013-09-24 10:56:00,
2013-09-24 07:01:00,37.1,36.6,30.13,SE,145,0.0,0.0,98,0.00,,,0.00,VWS V14.01,2013-09-24 11:01:00,
2013-09-24 07:07:00,37.2,36.7,30.14,SE,145,0.0,0.0,98,0.00,,,0.00,VWS V14.01,2013-09-24 11:07:00,
2013-09-24 07:12:00,37.2,36.7,30.13,South,169,0.0,0.0,98,0.00,,,0.00,VWS V14.01,2013-09-24 11:12:00,
2013-09-24 07:17:00,37.1,36.6,30.14,South,169,0.0,0.0,98,0.00,,,0.00,VWS V14.01,2013-09-24 11:17:00,
2013-09-24 07:22:00,37.2,36.7,30.14,South,169,0.0,0.0,98,0.00,,,0.00,VWS V14.01,2013-09-24 11:22:00,
2013-09-24 07:27:00,37.3,36.8,30.14,South,169,0.0,0.0,98,0.00,,,0.00,VWS V14.01,2013-09-24 11:27:00,
2013-09-24 07:32:00,37.4,36.9,30.14,South,169,0.0,0.0,98,0.00,,,0.00,VWS V14.01,2013-09-24 11:32:00,
2013-09-24 07:37:00,37.5,37.0,30.14,South,169,0.0,0.0,98,0.00,,,0.00,VWS V14.01,2013-09-24 11:37:00,
2013-09-24 07:42:00,37.6,37.1,30.14,South,169,0.0,0.0,98,0.00,,,0.00,VWS V14.01,2013-09-24 11:42:00,
2013-09-24 07:47:00,37.7,37.2,30.14,SSE,163,0.0,0.0,98,0.00,,,0.00,VWS V14.01,2013-09-24 11:47:00,
2013-09-24 07:52:00,37.8,37.3,30.14,SSE,163,0.0,0.0,98,0.00,,,0.00,VWS V14.01,2013-09-24 11:52:00,
2013-09-24 07:57:00,37.9,37.4,30.14,SSE,163,0.0,0.0,98,0.00,,,0.00,VWS V14.01,2013-09-24 11:57:00,
2013-09-24 08:02:00,38.0,37.5,30.14,SSE,163,0.0,0.0,98,0.00,,,0.00,VWS V14.01,2013-09-24 12:02:00,
2013-09-24 08:07:00,38.2,37.7,30.14,SSE,163,0.0,0.0,98,0.00,,,0.00,VWS V14.01,2013-09-24 12:07:00,
2013-09-24 08:13:00,38.5,38.0,30.14,SSE,163,0.0,0.0,98,0.00,,,0.00,VWS V14.01,2013-09-24 12:13:00,
2013-09-24 08:18:00,38.9,38.4,30.14,SSE,163,0.0,0.0,98,0.00,,,0.00,VWS V14.01,2013-09-24 12:18:00,
2013-09-24 08:23:00,39.4,38.9,30.14,SSE,164,0.0,0.0,98,0.00,,,0.00,VWS V14.01,2013-09-24 12:23:00,
2013-09-24 08:28:00,39.8,39.3,30.14,SSE,164,0.0,0.0,98,0.00,,,0.00,VWS V14.01,2013-09-24 12:28:00,
2013-09-24 08:33:00,40.5,40.0,30.14,SSE,163,0.0,0.0,98,0.00,,,0.00,VWS V14.01,2013-09-24 12:33:00,
2013-09-24 08:38:00,41.6,41.1,30.14,SSE,165,0.0,0.0,98,0.00,,,0.00,VWS V14.01,2013-09-24 12:38:00,
2013-09-24 08:43:00,42.8,42.5,30.14,South,191,0.0,0.0,99,0.00,,,0.00,VWS V14.01,2013-09-24 12:43:00,
2013-09-24 08:48:00,43.9,43.6,30.14,South,175,0.0,0.0,99,0.00,,,0.00,VWS V14.01,2013-09-24 12:48:00,
2013-09-24 08:53:00,45.1,44.8,30.14,South,176,0.0,0.0,99,0.00,,,0.00,VWS V14.01,2013-09-24 12:53:00,
2013-09-24 08:58:00,45.9,45.4,30.15,South,176,0.0,0.0,98,0.00,,,0.00,VWS V14.01,2013-09-24 12:58:00,
2013-09-24 09:03:00,46.9,46.6,30.14,South,176,0.0,0.0,99,0.00,,,0.00,VWS V14.01,2013-09-24 13:03:00,
2013-09-24 09:08:00,47.7,47.4,30.14,SSW,204,0.0,0.0,99,0.00,,,0.00,VWS V14.01,2013-09-24 13:08:00,
2013-09-24 09:13:00,48.5,48.2,30.14,South,186,0.0,0.0,99,0.00,,,0.00,VWS V14.01,2013-09-24 13:13:00,
2013-09-24 09:18:00,49.0,48.7,30.14,SW,219,0.0,0.0,99,0.00,,,0.00,VWS V14.01,2013-09-24 13:18:00,
2013-09-24 09:24:00,49.6,49.3,30.14,South,179,0.0,0.0,99,0.00,,,0.00,VWS V14.01,2013-09-24 13:24:00,
2013-09-24 09:29:00,49.9,49.4,30.14,SSW,207,0.0,0.0,98,0.00,,,0.00,VWS V14.01,2013-09-24 13:29:00,
2013-09-24 09:34:00,50.3,50.0,30.14,South,186,0.0,0.0,99,0.00,,,0.00,VWS V14.01,2013-09-24 13:34:00,
2013-09-24 09:39:00,50.7,50.2,30.14,SW,221,4.0,0.0,98,0.00,,,0.00,VWS V14.01,2013-09-24 13:39:00,
2013-09-24 09:44:00,51.2,49.5,30.14,SSW,192,0.0,0.0,94,0.00,,,0.00,VWS V14.01,2013-09-24 13:44:00,
2013-09-24 09:49:00,51.9,49.4,30.14,South,182,0.0,0.0,91,0.00,,,0.00,VWS V14.01,2013-09-24 13:49:00,
2013-09-24 09:54:00,52.3,49.2,30.14,SSW,208,0.0,0.0,89,0.00,,,0.00,VWS V14.01,2013-09-24 13:54:00,
2013-09-24 09:59:00,52.8,49.3,30.14,SSE,166,0.0,0.0,88,0.00,,,0.00,VWS V14.01,2013-09-24 13:59:00,
2013-09-24 10:04:00,53.4,49.6,30.14,South,172,0.0,0.0,87,0.00,,,0.00,VWS V14.01,2013-09-24 14:04:00,
2013-09-24 10:09:00,54.0,49.3,30.13,South,182,0.0,0.0,84,0.00,,,0.00,VWS V14.01,2013-09-24 14:09:00,
2013-09-24 10:14:00,54.5,49.8,30.13,SSW,205,0.0,0.0,84,0.00,,,0.00,VWS V14.01,2013-09-24 14:14:00,
2013-09-24 10:19:00,54.9,49.8,30.13,SSW,211,0.0,0.0,83,0.00,,,0.00,VWS V14.01,2013-09-24 14:19:00,
2013-09-24 10:24:00,55.6,49.9,30.13,SE,135,0.0,0.0,81,0.00,,,0.00,VWS V14.01,2013-09-24 14:24:00,
2013-09-24 10:29:00,56.1,50.0,30.13,SSE,165,0.0,0.0,80,0.00,,,0.00,VWS V14.01,2013-09-24 14:29:00,
2013-09-24 10:34:00,56.7,50.6,30.13,South,169,0.0,0.0,80,0.00,,,0.00,VWS V14.01,2013-09-24 14:34:00,
2013-09-24 10:39:00,57.4,50.6,30.13,SE,145,0.0,0.0,78,0.00,,,0.00,VWS V14.01,2013-09-24 14:39:00,
2013-09-24 10:44:00,57.6,49.8,30.12,SSW,202,0.0,0.0,75,0.00,,,0.00,VWS V14.01,2013-09-24 14:44:00,
2013-09-24 10:49:00,57.8,49.9,30.12,SSW,192,0.0,0.0,75,0.00,,,0.00,VWS V14.01,2013-09-24 14:49:00,
2013-09-24 10:54:00,58.2,50.3,30.12,South,176,0.0,0.0,75,0.00,,,0.00,VWS V14.01,2013-09-24 14:54:00,
2013-09-24 11:00:00,58.5,49.9,30.12,SSW,200,4.0,0.0,73,0.00,,,0.00,VWS V14.01,2013-09-24 15:00:00,
2013-09-24 11:05:00,58.8,50.5,30.12,South,191,0.0,0.0,74,0.00,,,0.00,VWS V14.01,2013-09-24 15:05:00,
2013-09-24 11:10:00,59.2,50.2,30.12,SW,226,0.0,0.0,72,0.00,,,0.00,VWS V14.01,2013-09-24 15:10:00,
2013-09-24 11:15:00,59.5,50.1,30.12,South,182,0.0,0.0,71,0.00,,,0.00,VWS V14.01,2013-09-24 15:15:00,
2013-09-24 11:20:00,60.0,51.0,30.12,South,189,0.0,0.0,72,0.00,,,0.00,VWS V14.01,2013-09-24 15:20:00,
2013-09-24 11:25:00,60.6,51.2,30.12,SSW,211,0.0,0.0,71,0.00,,,0.00,VWS V14.01,2013-09-24 15:25:00,
2013-09-24 11:30:00,61.1,51.2,30.12,SSE,153,0.0,0.0,70,0.00,,,0.00,VWS V14.01,2013-09-24 15:30:00,
2013-09-24 11:35:00,61.4,50.8,30.12,WSW,243,0.0,0.0,68,0.00,,,0.00,VWS V14.01,2013-09-24 15:35:00,
2013-09-24 11:40:00,61.2,50.2,30.12,South,173,0.0,0.0,67,0.00,,,0.00,VWS V14.01,2013-09-24 15:40:00,
2013-09-24 11:45:00,61.3,49.9,30.11,SSW,209,0.0,0.0,66,0.00,,,0.00,VWS V14.01,2013-09-24 15:45:00,
2013-09-24 11:50:00,61.5,49.2,30.11,SSE,163,0.0,0.0,64,0.00,,,0.00,VWS V14.01,2013-09-24 15:50:00,
2013-09-24 11:55:00,61.9,49.6,30.11,South,180,0.0,0.0,64,0.00,,,0.00,VWS V14.01,2013-09-24 15:55:00,
2013-09-24 12:00:00,62.0,49.3,30.11,SSW,194,0.0,0.0,63,0.00,,,0.00,VWS V14.01,2013-09-24 16:00:00,
2013-09-24 12:05:00,62.4,49.7,30.10,SE,134,0.0,0.0,63,0.00,,,0.00,VWS V14.01,2013-09-24 16:05:00,
2013-09-24 12:10:00,62.7,48.2,30.10,SE,133,0.0,0.0,59,0.00,,,0.00,VWS V14.01,2013-09-24 16:10:00,
2013-09-24 12:15:00,62.8,48.7,30.10,ESE,110,0.0,0.0,60,0.00,,,0.00,VWS V14.01,2013-09-24 16:15:00,
2013-09-24 12:20:00,62.5,48.4,30.10,SSW,206,0.0,0.0,60,0.00,,,0.00,VWS V14.01,2013-09-24 16:20:00,
2013-09-24 12:25:00,62.3,48.7,30.10,South,180,0.0,0.0,61,0.00,,,0.00,VWS V14.01,2013-09-24 16:25:00,
2013-09-24 12:30:00,62.4,48.8,30.09,South,174,0.0,0.0,61,0.00,,,0.00,VWS V14.01,2013-09-24 16:30:00,
2013-09-24 12:35:00,62.6,48.5,30.09,South,183,0.0,0.0,60,0.00,,,0.00,VWS V14.01,2013-09-24 16:35:00,
2013-09-24 12:40:00,62.7,48.2,30.09,SSW,211,0.0,0.0,59,0.00,,,0.00,VWS V14.01,2013-09-24 16:40:00,
2013-09-24 12:45:00,63.0,48.5,30.09,SW,215,0.0,0.0,59,0.00,,,0.00,VWS V14.01,2013-09-24 16:45:00,
2013-09-24 12:50:00,63.3,49.6,30.09,SE,144,0.0,0.0,61,0.00,,,0.00,VWS V14.01,2013-09-24 16:50:00,
2013-09-24 12:56:00,63.0,48.0,30.09,ENE,63,0.0,0.0,58,0.00,,,0.00,VWS V14.01,2013-09-24 16:56:00,
2013-09-24 13:01:00,62.9,50.1,30.09,ENE,62,0.0,0.0,63,0.00,,,0.00,VWS V14.01,2013-09-24 17:01:00,
2013-09-24 13:06:00,62.9,48.8,30.09,East,83,0.0,0.0,60,0.00,,,0.00,VWS V14.01,2013-09-24 17:06:00,
2013-09-24 13:11:00,62.5,48.4,30.08,NNE,32,0.0,0.0,60,0.00,,,0.00,VWS V14.01,2013-09-24 17:11:00,
2013-09-24 13:16:00,62.9,49.3,30.08,NNE,17,0.0,0.0,61,0.00,,,0.00,VWS V14.01,2013-09-24 17:16:00,
2013-09-24 13:21:00,63.6,49.0,30.08,SSW,198,0.0,0.0,59,0.00,,,0.00,VWS V14.01,2013-09-24 17:21:00,
2013-09-24 13:26:00,64.0,49.4,30.08,SSE,159,0.0,0.0,59,0.00,,,0.00,VWS V14.01,2013-09-24 17:26:00,
2013-09-24 13:31:00,64.4,49.3,30.08,ENE,57,0.0,0.0,58,0.00,,,0.00,VWS V14.01,2013-09-24 17:31:00,
2013-09-24 13:36:00,64.3,49.7,30.08,NNE,22,0.0,0.0,59,0.00,,,0.00,VWS V14.01,2013-09-24 17:36:00,
2013-09-24 13:41:00,64.3,49.7,30.08,SE,140,0.0,0.0,59,0.00,,,0.00,VWS V14.01,2013-09-24 17:41:00,
2013-09-24 13:46:00,64.5,49.0,30.07,SE,139,0.0,0.0,57,0.00,,,0.00,VWS V14.01,2013-09-24 17:46:00,
2013-09-24 13:51:00,65.0,49.4,30.07,SSW,206,0.0,0.0,57,0.00,,,0.00,VWS V14.01,2013-09-24 17:51:00,
2013-09-24 13:57:00,65.1,50.9,30.07,North,9,0.0,0.0,60,0.00,,,0.00,VWS V14.01,2013-09-24 17:57:00,
2013-09-24 14:02:00,64.2,50.5,30.06,WNW,302,0.0,0.0,61,0.00,,,0.00,VWS V14.01,2013-09-24 18:02:00,
2013-09-24 14:07:00,64.0,50.3,30.06,NNE,17,0.0,0.0,61,0.00,,,0.00,VWS V14.01,2013-09-24 18:07:00,
2013-09-24 14:12:00,64.0,51.2,30.06,NW,323,0.0,0.0,63,0.00,,,0.00,VWS V14.01,2013-09-24 18:12:00,
2013-09-24 14:17:00,64.1,50.8,30.06,NW,315,0.0,0.0,62,0.00,,,0.00,VWS V14.01,2013-09-24 18:17:00,
2013-09-24 14:22:00,64.7,50.5,30.06,WSW,246,1.0,0.0,60,0.00,,,0.00,VWS V14.01,2013-09-24 18:22:00,
2013-09-24 14:27:00,65.2,50.5,30.05,WSW,254,0.0,0.0,59,0.00,,,0.00,VWS V14.01,2013-09-24 18:27:00,
2013-09-24 14:32:00,65.1,50.9,30.05,NNE,23,0.0,0.0,60,0.00,,,0.00,VWS V14.01,2013-09-24 18:32:00,
2013-09-24 14:37:00,65.1,51.8,30.05,WNW,296,0.0,0.0,62,0.00,,,0.00,VWS V14.01,2013-09-24 18:37:00,
2013-09-24 14:42:00,65.4,52.5,30.05,North,360,0.0,0.0,63,0.00,,,0.00,VWS V14.01,2013-09-24 18:42:00,
2013-09-24 14:47:00,64.9,52.0,30.05,North,360,0.0,0.0,63,0.00,,,0.00,VWS V14.01,2013-09-24 18:47:00,
2013-09-24 14:52:00,64.6,51.7,30.05,NW,319,0.0,0.0,63,0.00,,,0.00,VWS V14.01,2013-09-24 18:52:00,
2013-09-24 14:57:00,64.2,51.8,30.05,WSW,240,0.0,0.0,64,0.00,,,0.00,VWS V14.01,2013-09-24 18:57:00,
2013-09-24 15:03:00,64.4,52.0,30.05,NNE,29,3.0,0.0,64,0.00,,,0.00,VWS V14.01,2013-09-24 19:03:00,
2013-09-24 15:08:00,64.4,52.0,30.05,NNE,13,0.0,0.0,64,0.00,,,0.00,VWS V14.01,2013-09-24 19:08:00,
2013-09-24 15:13:00,63.8,52.7,30.05,North,9,0.0,0.0,67,0.00,,,0.00,VWS V14.01,2013-09-24 19:13:00,
2013-09-24 15:18:00,63.5,52.0,30.05,NNW,339,0.0,0.0,66,0.00,,,0.00,VWS V14.01,2013-09-24 19:18:00,
2013-09-24 15:23:00,63.6,52.0,30.05,NNW,330,0.0,0.0,66,0.00,,,0.00,VWS V14.01,2013-09-24 19:23:00,
2013-09-24 15:28:00,63.7,51.7,30.05,NNW,331,0.0,0.0,65,0.00,,,0.00,VWS V14.01,2013-09-24 19:28:00,
2013-09-24 15:33:00,63.8,51.4,30.05,NNW,331,0.0,0.0,64,0.00,,,0.00,VWS V14.01,2013-09-24 19:33:00,
2013-09-24 15:38:00,63.9,51.5,30.04,NNW,333,0.0,0.0,64,0.00,,,0.00,VWS V14.01,2013-09-24 19:38:00,
2013-09-24 15:43:00,64.2,51.8,30.04,North,355,0.0,0.0,64,0.00,,,0.00,VWS V14.01,2013-09-24 19:43:00,
2013-09-24 15:48:00,64.5,52.1,30.04,WNW,302,0.0,0.0,64,0.00,,,0.00,VWS V14.01,2013-09-24 19:48:00,
2013-09-24 15:53:00,64.5,50.8,30.04,North,350,0.0,0.0,61,0.00,,,0.00,VWS V14.01,2013-09-24 19:53:00,
2013-09-24 15:58:00,64.2,51.4,30.04,North,360,0.0,0.0,63,0.00,,,0.00,VWS V14.01,2013-09-24 19:58:00,
2013-09-24 16:03:00,64.2,52.2,30.04,NW,317,0.0,0.0,65,0.00,,,0.00,VWS V14.01,2013-09-24 20:03:00,
2013-09-24 16:08:00,64.3,51.5,30.04,NW,306,0.0,0.0,63,0.00,,,0.00,VWS V14.01,2013-09-24 20:08:00,
2013-09-24 16:14:00,64.5,51.2,30.04,West,276,0.0,0.0,62,0.00,,,0.00,VWS V14.01,2013-09-24 20:14:00,
2013-09-24 16:19:00,64.5,51.6,30.04,NW,325,0.0,0.0,63,0.00,,,0.00,VWS V14.01,2013-09-24 20:19:00,
2013-09-24 16:24:00,64.3,51.5,30.03,NE,40,0.0,0.0,63,0.00,,,0.00,VWS V14.01,2013-09-24 20:24:00,
2013-09-24 16:29:00,63.8,51.0,30.03,WNW,284,0.0,0.0,63,0.00,,,0.00,VWS V14.01,2013-09-24 20:29:00,
2013-09-24 16:34:00,64.0,52.0,30.03,West,273,0.0,0.0,65,0.00,,,0.00,VWS V14.01,2013-09-24 20:34:00,
2013-09-24 16:39:00,64.0,51.2,30.03,NNW,336,0.0,0.0,63,0.00,,,0.00,VWS V14.01,2013-09-24 20:39:00,
2013-09-24 16:44:00,64.0,51.6,30.03,NW,313,0.0,0.0,64,0.00,,,0.00,VWS V14.01,2013-09-24 20:44:00,
2013-09-24 16:49:00,64.0,51.2,30.03,North,355,6.0,0.0,63,0.00,,,0.00,VWS V14.01,2013-09-24 20:49:00,
2013-09-24 16:54:00,63.6,51.6,30.03,NW,321,2.0,0.0,65,0.00,,,0.00,VWS V14.01,2013-09-24 20:54:00,
2013-09-24 16:59:00,63.1,51.2,30.03,North,360,0.0,0.0,65,0.00,,,0.00,VWS V14.01,2013-09-24 20:59:00,
2013-09-24 17:04:00,62.7,51.2,30.03,NNW,328,0.0,0.0,66,0.00,,,0.00,VWS V14.01,2013-09-24 21:04:00,
2013-09-24 17:09:00,62.5,51.4,30.03,NNW,338,0.0,0.0,67,0.00,,,0.00,VWS V14.01,2013-09-24 21:09:00,
2013-09-24 17:15:00,62.3,51.2,30.03,WNW,300,3.0,0.0,67,0.00,,,0.00,VWS V14.01,2013-09-24 21:15:00,
2013-09-24 17:20:00,62.0,50.9,30.03,North,355,0.0,0.0,67,0.00,,,0.00,VWS V14.01,2013-09-24 21:20:00,
2013-09-24 17:25:00,61.6,51.3,30.02,NNW,330,0.0,0.0,69,0.00,,,0.00,VWS V14.01,2013-09-24 21:25:00,
2013-09-24 17:30:00,61.4,51.2,30.02,WNW,298,0.0,0.0,69,0.00,,,0.00,VWS V14.01,2013-09-24 21:30:00,
2013-09-24 17:35:00,61.3,51.5,30.02,North,355,0.0,0.0,70,0.00,,,0.00,VWS V14.01,2013-09-24 21:35:00,
2013-09-24 17:40:00,61.0,50.8,30.02,North,360,0.0,0.0,69,0.00,,,0.00,VWS V14.01,2013-09-24 21:40:00,
2013-09-24 17:45:00,60.7,51.2,30.02,NE,55,5.0,0.0,71,0.00,,,0.00,VWS V14.01,2013-09-24 21:45:00,
2013-09-24 17:50:00,60.5,51.1,30.02,NNW,342,0.0,0.0,71,0.00,,,0.00,VWS V14.01,2013-09-24 21:50:00,
2013-09-24 17:55:00,60.3,50.9,30.02,NNW,340,4.0,0.0,71,0.00,,,0.00,VWS V14.01,2013-09-24 21:55:00,
2013-09-24 18:00:00,60.1,51.1,30.02,North,355,0.0,0.0,72,0.00,,,0.00,VWS V14.01,2013-09-24 22:00:00,
2013-09-24 18:05:00,60.0,51.0,30.02,NNW,327,0.0,0.0,72,0.00,,,0.00,VWS V14.01,2013-09-24 22:05:00,
2013-09-24 18:10:00,59.8,51.1,30.01,NNW,336,0.0,0.0,73,0.00,,,0.00,VWS V14.01,2013-09-24 22:10:00,
2013-09-24 18:15:00,59.5,51.2,30.01,NW,324,0.0,0.0,74,0.00,,,0.00,VWS V14.01,2013-09-24 22:15:00,
2013-09-24 18:20:00,59.3,51.0,30.02,North,355,0.0,0.0,74,0.00,,,0.00,VWS V14.01,2013-09-24 22:20:00,
2013-09-24 18:25:00,59.0,50.7,30.02,NW,310,0.0,0.0,74,0.00,,,0.00,VWS V14.01,2013-09-24 22:25:00,
2013-09-24 18:30:00,58.7,50.8,30.02,NNW,329,0.0,0.0,75,0.00,,,0.00,VWS V14.01,2013-09-24 22:30:00,
2013-09-24 18:36:00,58.4,50.9,30.02,North,355,0.0,0.0,76,0.00,,,0.00,VWS V14.01,2013-09-24 22:36:00,
2013-09-24 18:41:00,58.2,50.7,30.02,NNW,339,0.0,0.0,76,0.00,,,0.00,VWS V14.01,2013-09-24 22:41:00,
2013-09-24 18:46:00,58.0,51.2,30.02,NNW,338,0.0,0.0,78,0.00,,,0.00,VWS V14.01,2013-09-24 22:46:00,
2013-09-24 18:51:00,57.8,51.0,30.02,North,350,0.0,0.0,78,0.00,,,0.00,VWS V14.01,2013-09-24 22:51:00,
2013-09-24 18:56:00,57.6,51.1,30.02,North,350,0.0,0.0,79,0.00,,,0.00,VWS V14.01,2013-09-24 22:56:00,
2013-09-24 19:01:00,57.3,51.2,30.02,NNE,26,0.0,0.0,80,0.00,,,0.00,VWS V14.01,2013-09-24 23:01:00,
2013-09-24 19:06:00,57.1,51.3,30.01,NNE,18,0.0,0.0,81,0.00,,,0.00,VWS V14.01,2013-09-24 23:06:00,
2013-09-24 19:11:00,56.8,51.4,30.01,NNE,18,0.0,0.0,82,0.00,,,0.00,VWS V14.01,2013-09-24 23:11:00,
2013-09-24 19:16:00,56.5,51.1,30.01,NNE,18,0.0,0.0,82,0.00,,,0.00,VWS V14.01,2013-09-24 23:16:00,
2013-09-24 19:21:00,56.1,51.0,30.01,NNE,18,0.0,0.0,83,0.00,,,0.00,VWS V14.01,2013-09-24 23:21:00,
2013-09-24 19:26:00,55.7,50.6,30.01,NNE,18,0.0,0.0,83,0.00,,,0.00,VWS V14.01,2013-09-24 23:26:00,
2013-09-24 19:31:00,55.4,50.7,30.01,NNE,18,0.0,0.0,84,0.00,,,0.00,VWS V14.01,2013-09-24 23:31:00,
2013-09-24 19:36:00,55.0,50.3,30.01,NNE,18,0.0,0.0,84,0.00,,,0.00,VWS V14.01,2013-09-24 23:36:00,
2013-09-24 19:42:00,54.5,50.1,30.01,NNE,18,0.0,0.0,85,0.00,,,0.00,VWS V14.01,2013-09-24 23:42:00,
2013-09-24 19:47:00,54.1,49.7,30.01,NNE,18,0.0,0.0,85,0.00,,,0.00,VWS V14.01,2013-09-24 23:47:00,
2013-09-24 19:52:00,53.7,49.6,30.00,NNE,18,0.0,0.0,86,0.00,,,0.00,VWS V14.01,2013-09-24 23:52:00,
2013-09-24 19:57:00,53.2,49.1,30.00,NNE,18,0.0,0.0,86,0.00,,,0.00,VWS V14.01,2013-09-24 23:57:00,
2013-09-24 20:02:00,52.7,48.6,30.01,NNE,18,0.0,0.0,86,0.00,,,0.00,VWS V14.01,2013-09-25 00:02:00,
2013-09-24 20:07:00,52.2,48.2,30.00,NNE,18,0.0,0.0,86,0.00,,,0.00,VWS V14.01,2013-09-25 00:07:00,
2013-09-24 20:12:00,51.7,48.3,30.00,NNE,18,0.0,0.0,88,0.00,,,0.00,VWS V14.01,2013-09-25 00:12:00,
2013-09-24 20:17:00,51.2,48.1,30.00,NNE,18,0.0,0.0,89,0.00,,,0.00,VWS V14.01,2013-09-25 00:17:00,
2013-09-24 20:22:00,50.8,47.4,30.00,NNE,18,0.0,0.0,88,0.00,,,0.00,VWS V14.01,2013-09-25 00:22:00,
2013-09-24 20:27:00,50.4,47.3,30.00,NNE,18,0.0,0.0,89,0.00,,,0.00,VWS V14.01,2013-09-25 00:27:00,
2013-09-24 20:32:00,50.0,46.9,30.00,NNE,18,0.0,0.0,89,0.00,,,0.00,VWS V14.01,2013-09-25 00:32:00,
2013-09-24 20:37:00,49.5,46.7,30.00,NNE,18,0.0,0.0,90,0.00,,,0.00,VWS V14.01,2013-09-25 00:37:00,
2013-09-24 20:42:00,49.2,46.4,30.00,NNE,18,0.0,0.0,90,0.00,,,0.00,VWS V14.01,2013-09-25 00:42:00,
2013-09-24 20:47:00,48.8,46.0,30.00,NNE,18,0.0,0.0,90,0.00,,,0.00,VWS V14.01,2013-09-25 00:47:00,
2013-09-24 20:52:00,48.5,46.0,30.00,NNE,18,0.0,0.0,91,0.00,,,0.00,VWS V14.01,2013-09-25 00:52:00,
2013-09-24 20:57:00,48.2,45.7,30.01,NNE,18,0.0,0.0,91,0.00,,,0.00,VWS V14.01,2013-09-25 00:57:00,
2013-09-24 21:02:00,47.9,45.4,30.00,NNE,18,0.0,0.0,91,0.00,,,0.00,VWS V14.01,2013-09-25 01:02:00,
2013-09-24 21:07:00,47.7,45.5,30.00,NNE,18,0.0,0.0,92,0.00,,,0.00,VWS V14.01,2013-09-25 01:07:00,
2013-09-24 21:13:00,47.4,45.2,30.00,NNE,18,0.0,0.0,92,0.00,,,0.00,VWS V14.01,2013-09-25 01:13:00,
2013-09-24 21:18:00,47.1,44.9,30.00,NNE,18,0.0,0.0,92,0.00,,,0.00,VWS V14.01,2013-09-25 01:18:00,
2013-09-24 21:23:00,46.8,44.9,30.00,NNE,18,0.0,0.0,93,0.00,,,0.00,VWS V14.01,2013-09-25 01:23:00,
2013-09-24 21:28:00,46.6,44.7,30.00,NNE,18,0.0,0.0,93,0.00,,,0.00,VWS V14.01,2013-09-25 01:28:00,
2013-09-24 21:33:00,46.6,45.0,30.00,NNE,18,0.0,0.0,94,0.00,,,0.00,VWS V14.01,2013-09-25 01:33:00,
2013-09-24 21:38:00,46.5,45.2,30.00,NNE,18,0.0,0.0,95,0.00,,,0.00,VWS V14.01,2013-09-25 01:38:00,
2013-09-24 21:43:00,46.5,45.2,30.00,NNE,18,0.0,0.0,95,0.00,,,0.00,VWS V14.01,2013-09-25 01:43:00,
2013-09-24 21:48:00,46.3,44.7,30.00,NNE,18,0.0,0.0,94,0.00,,,0.00,VWS V14.01,2013-09-25 01:48:00,
2013-09-24 21:53:00,46.1,44.5,30.00,NNE,18,0.0,0.0,94,0.00,,,0.00,VWS V14.01,2013-09-25 01:53:00,
2013-09-24 21:59:00,45.9,44.3,30.00,NNE,18,0.0,0.0,94,0.00,,,0.00,VWS V14.01,2013-09-25 01:59:00,
2013-09-24 22:04:00,45.8,44.2,30.00,NNE,18,0.0,0.0,94,0.00,,,0.00,VWS V14.01,2013-09-25 02:04:00,
2013-09-24 22:09:00,45.7,44.3,30.00,NNE,18,0.0,0.0,95,0.00,,,0.00,VWS V14.01,2013-09-25 02:09:00,
2013-09-24 22:14:00,45.6,44.2,30.00,NNE,18,0.0,0.0,95,0.00,,,0.00,VWS V14.01,2013-09-25 02:14:00,
2013-09-24 22:19:00,45.5,44.2,30.00,NNE,18,0.0,0.0,95,0.00,,,0.00,VWS V14.01,2013-09-25 02:19:00,
2013-09-24 22:24:00,45.5,44.4,29.99,NNE,18,0.0,0.0,96,0.00,,,0.00,VWS V14.01,2013-09-25 02:24:00,
2013-09-24 22:29:00,45.4,44.3,29.99,NNE,18,0.0,0.0,96,0.00,,,0.00,VWS V14.01,2013-09-25 02:29:00,
2013-09-24 22:34:00,45.5,44.4,29.99,NNE,19,0.0,0.0,96,0.00,,,0.00,VWS V14.01,2013-09-25 02:34:00,
2013-09-24 22:39:00,45.6,44.5,29.99,NNE,19,0.0,0.0,96,0.00,,,0.00,VWS V14.01,2013-09-25 02:39:00,
2013-09-24 22:44:00,45.7,44.6,29.99,NNE,19,0.0,0.0,96,0.00,,,0.00,VWS V14.01,2013-09-25 02:44:00,
2013-09-24 22:49:00,45.6,44.5,29.99,NNE,19,0.0,0.0,96,0.00,,,0.00,VWS V14.01,2013-09-25 02:49:00,
2013-09-24 22:54:00,45.6,44.5,29.99,NNE,19,0.0,0.0,96,0.00,,,0.00,VWS V14.01,2013-09-25 02:54:00,
2013-09-24 22:59:00,45.5,44.4,30.00,NNE,19,0.0,0.0,96,0.00,,,0.00,VWS V14.01,2013-09-25 02:59:00,
2013-09-24 23:04:00,45.4,44.3,30.00,NNE,19,0.0,0.0,96,0.00,,,0.00,VWS V14.01,2013-09-25 03:04:00,
2013-09-24 23:09:00,45.4,44.3,30.00,NNE,19,0.0,0.0,96,0.00,,,0.00,VWS V14.01,2013-09-25 03:09:00,
2013-09-24 23:14:00,45.4,44.3,30.00,NNE,19,0.0,0.0,96,0.00,,,0.00,VWS V14.01,2013-09-25 03:14:00,
2013-09-24 23:19:00,45.4,44.6,30.00,NNE,19,0.0,0.0,97,0.00,,,0.00,VWS V14.01,2013-09-25 03:19:00,
2013-09-24 23:24:00,45.2,44.1,30.00,NNE,19,0.0,0.0,96,0.00,,,0.00,VWS V14.01,2013-09-25 03:24:00,
2013-09-24 23:30:00,45.1,44.0,30.00,NNE,19,0.0,0.0,96,0.00,,,0.00,VWS V14.01,2013-09-25 03:30:00,
2013-09-24 23:35:00,45.0,43.9,30.00,NNE,19,0.0,0.0,96,0.00,,,0.00,VWS V14.01,2013-09-25 03:35:00,
2013-09-24 23:40:00,44.8,43.7,30.00,NNE,19,0.0,0.0,96,0.00,,,0.00,VWS V14.01,2013-09-25 03:40:00,
2013-09-24 23:45:00,44.7,43.6,29.99,NNE,19,0.0,0.0,96,0.00,,,0.00,VWS V14.01,2013-09-25 03:45:00,
2013-09-24 23:50:00,44.6,43.5,30.00,NNE,19,0.0,0.0,96,0.00,,,0.00,VWS V14.01,2013-09-25 03:50:00,
2013-09-24 23:55:00,44.7,43.9,30.00,NNE,20,0.0,0.0,97,0.00,,,0.00,VWS V14.01,2013-09-25 03:55:00,